Time;durP1;ratioP1;P1;durP2;ratioP2;P2;SDS_P1;SDS_P2;PMS_P1;PMS_P2;Temp;Humidity;BMP_temperature;BMP_pressure;BME280_temperature;BME280_humidity;BME280_pressure;Samples;Min_cycle;Max_cycle;Signal;HPM_P1;HPM_P2
2021/06/10 00:02:42;;;;;;;5.82;4.53;;;18.00;87.40;;;;;;5080862;28;27444;-66
2021/06/10 00:05:28;;;;;;;7.72;5.07;;;18.00;87.20;;;;;;5081838;28;27407;-65
2021/06/10 00:08:16;;;;;;;4.90;4.30;;;18.00;87.10;;;;;;5084968;28;27412;-66
2021/06/10 00:11:05;;;;;;;7.93;4.45;;;17.90;87.20;;;;;;5083979;28;27386;-66
2021/06/10 00:13:56;;;;;;;9.32;5.40;;;17.90;87.10;;;;;;5067063;28;27402;-66
2021/06/10 00:16:42;;;;;;;6.07;4.95;;;17.90;87.30;;;;;;5080743;28;27403;-65
2021/06/10 00:19:30;;;;;;;4.95;4.43;;;17.80;87.00;;;;;;5084801;28;28079;-64
2021/06/10 00:22:20;;;;;;;7.10;4.72;;;17.80;87.00;;;;;;5112332;27;27438;-64
2021/06/10 00:25:08;;;;;;;5.03;4.53;;;17.80;86.70;;;;;;5084035;28;27328;-64
2021/06/10 00:27:55;;;;;;;8.75;4.68;;;17.80;87.10;;;;;;5084452;28;27382;-64
2021/06/10 00:30:42;;;;;;;6.95;5.03;;;17.70;87.00;;;;;;5069442;28;27570;-64
2021/06/10 00:33:29;;;;;;;5.60;4.85;;;17.70;87.00;;;;;;5084159;28;27474;-64
2021/06/10 00:36:17;;;;;;;7.18;5.10;;;17.70;87.00;;;;;;5083750;28;27421;-64
2021/06/10 00:39:04;;;;;;;5.32;4.40;;;17.70;86.90;;;;;;5066445;28;27337;-64
2021/06/10 00:41:52;;;;;;;6.65;4.90;;;17.60;86.60;;;;;;5084496;28;27328;-64
2021/06/10 00:44:39;;;;;;;8.45;5.93;;;17.60;87.10;;;;;;5098042;27;27473;-64
2021/06/10 00:47:26;;;;;;;5.28;4.78;;;17.60;87.00;;;;;;5098010;27;27425;-64
2021/06/10 00:50:13;;;;;;;5.22;4.55;;;17.60;87.10;;;;;;5084438;28;27411;-64
2021/06/10 00:53:02;;;;;;;6.00;4.80;;;17.60;87.10;;;;;;5083363;28;27376;-64
2021/06/10 00:55:53;;;;;;;5.03;4.53;;;17.50;87.10;;;;;;5084232;28;27423;-64
2021/06/10 00:58:40;;;;;;;8.27;4.90;;;17.50;86.90;;;;;;5066605;28;27403;-64
2021/06/10 01:01:36;;;;;;;5.65;5.05;;;17.50;87.00;;;;;;5084265;28;27473;-64
2021/06/10 01:04:23;;;;;;;5.57;4.88;;;17.50;86.80;;;;;;5084485;28;27420;-64
2021/06/10 01:07:47;;;;;;;5.40;4.60;;;17.50;87.10;;;;;;5086788;28;27471;-64
2021/06/10 01:10:39;;;;;;;7.05;4.47;;;17.40;87.00;;;;;;5087584;28;27601;-64
2021/06/10 01:13:27;;;;;;;9.15;4.35;;;17.40;86.70;;;;;;5069388;28;27399;-65
2021/06/10 01:16:16;;;;;;;4.80;4.28;;;17.40;87.00;;;;;;5087330;28;27508;-64
2021/06/10 01:19:11;;;;;;;8.70;5.13;;;17.40;86.90;;;;;;5087442;28;27398;-64
2021/06/10 01:21:59;;;;;;;8.30;4.60;;;17.30;86.80;;;;;;5073194;28;27379;-64
2021/06/10 01:25:08;;;;;;;5.97;5.20;;;17.30;87.00;;;;;;5086955;28;27414;-64
2021/06/10 01:27:58;;;;;;;5.82;4.65;;;17.30;86.90;;;;;;5071184;28;27641;-65
2021/06/10 01:30:58;;;;;;;5.72;4.93;;;17.30;86.60;;;;;;5086551;28;27484;-65
2021/06/10 01:33:58;;;;;;;7.18;4.93;;;17.20;86.90;;;;;;5087278;28;27449;-65
2021/06/10 01:36:46;;;;;;;10.70;4.97;;;17.20;86.80;;;;;;5086275;28;27343;-64
2021/06/10 01:39:33;;;;;;;7.53;5.38;;;17.20;86.90;;;;;;5086390;28;27442;-64
2021/06/10 01:42:20;;;;;;;12.35;5.68;;;17.20;87.00;;;;;;5086292;28;27478;-65
2021/06/10 01:45:09;;;;;;;6.07;4.90;;;17.20;87.10;;;;;;5087077;28;27352;-67
2021/06/10 01:47:56;;;;;;;5.68;5.18;;;17.10;86.70;;;;;;5086231;28;26873;-65
2021/06/10 01:50:45;;;;;;;7.45;5.38;;;17.10;86.80;;;;;;5086974;28;27421;-65
2021/06/10 01:53:33;;;;;;;7.18;5.05;;;17.10;86.70;;;;;;5086147;28;27368;-64
2021/06/10 01:56:21;;;;;;;10.68;5.90;;;17.10;86.80;;;;;;5071324;28;27691;-64
2021/06/10 01:59:11;;;;;;;8.68;5.78;;;17.00;86.90;;;;;;5086831;28;27446;-65
2021/06/10 02:02:05;;;;;;;6.47;5.38;;;17.00;86.60;;;;;;5086715;28;27317;-65
2021/06/10 02:04:52;;;;;;;10.15;5.97;;;17.00;86.90;;;;;;5085936;28;27439;-64
2021/06/10 02:07:40;;;;;;;5.70;5.15;;;17.00;86.70;;;;;;5085946;28;27375;-64
2021/06/10 02:10:27;;;;;;;8.15;4.90;;;17.00;86.80;;;;;;5068818;28;27462;-64
2021/06/10 02:13:18;;;;;;;6.90;5.63;;;17.00;86.90;;;;;;5068433;28;27953;-65
2021/06/10 02:16:10;;;;;;;6.20;5.53;;;17.00;86.90;;;;;;5084506;28;27387;-65
2021/06/10 02:18:56;;;;;;;5.80;5.25;;;16.90;87.30;;;;;;5085841;28;27474;-65
2021/06/10 02:21:44;;;;;;;6.50;5.22;;;16.90;87.20;;;;;;5082603;28;27391;-65
2021/06/10 02:24:31;;;;;;;6.57;5.70;;;16.90;87.30;;;;;;5082699;28;27325;-65
2021/06/10 02:27:18;;;;;;;6.43;5.63;;;16.90;87.20;;;;;;5085587;28;27419;-64
2021/06/10 02:30:06;;;;;;;6.07;5.35;;;16.90;86.90;;;;;;5086354;28;27473;-64
2021/06/10 02:32:54;;;;;;;10.88;5.82;;;16.90;87.20;;;;;;5085614;28;27391;-64
2021/06/10 02:35:45;;;;;;;8.68;5.60;;;16.90;86.90;;;;;;5082240;28;27383;-64
2021/06/10 02:38:32;;;;;;;6.85;6.15;;;16.90;87.10;;;;;;5085409;28;27367;-65
2021/06/10 02:41:20;;;;;;;6.68;5.70;;;16.90;87.10;;;;;;5085481;28;27306;-64
2021/06/10 02:44:08;;;;;;;6.38;5.78;;;16.80;87.30;;;;;;5085564;28;27582;-64
2021/06/10 02:46:55;;;;;;;6.63;5.57;;;16.90;87.90;;;;;;5085568;28;27529;-64
2021/06/10 02:49:46;;;;;;;7.45;5.82;;;16.80;88.10;;;;;;5085758;28;27471;-64
2021/06/10 02:52:33;;;;;;;5.32;4.82;;;16.80;88.30;;;;;;5085285;28;27495;-65
2021/06/10 02:55:21;;;;;;;10.43;5.80;;;16.80;88.40;;;;;;5071326;28;27478;-64
2021/06/10 02:58:08;;;;;;;6.47;5.53;;;16.80;88.80;;;;;;5085888;28;27383;-64
2021/06/10 03:00:56;;;;;;;6.55;5.95;;;16.80;89.00;;;;;;5085378;28;27390;-65
2021/06/10 03:03:43;;;;;;;6.95;6.25;;;16.80;89.30;;;;;;5085827;28;27459;-65
2021/06/10 03:06:31;;;;;;;8.82;6.25;;;16.80;89.70;;;;;;5085732;28;27435;-65
2021/06/10 03:09:18;;;;;;;7.85;6.00;;;16.80;89.70;;;;;;5067751;28;27328;-65
2021/06/10 03:12:10;;;;;;;7.32;6.05;;;16.80;89.90;;;;;;5099508;27;27366;-65
2021/06/10 03:14:58;;;;;;;6.82;6.10;;;16.80;90.00;;;;;;5071696;28;27344;-65
2021/06/10 03:17:45;;;;;;;6.25;5.32;;;16.80;90.00;;;;;;5084834;28;27406;-65
2021/06/10 03:20:32;;;;;;;6.82;6.15;;;16.80;90.00;;;;;;5085658;28;28063;-65
2021/06/10 03:23:19;;;;;;;7.18;5.55;;;16.80;89.90;;;;;;5085457;28;27474;-65
2021/06/10 03:26:05;;;;;;;6.60;5.50;;;16.80;89.90;;;;;;5085091;28;27320;-65
2021/06/10 03:28:52;;;;;;;7.68;5.20;;;16.80;89.80;;;;;;5084231;28;26966;-65
2021/06/10 03:31:39;;;;;;;6.53;4.93;;;16.80;89.60;;;;;;5098244;27;27672;-65
2021/06/10 03:34:28;;;;;;;8.68;5.10;;;16.80;89.40;;;;;;5070445;28;27456;-65
2021/06/10 03:37:15;;;;;;;7.53;4.95;;;16.80;89.50;;;;;;5084328;28;27490;-65
2021/06/10 03:40:03;;;;;;;8.27;5.03;;;16.80;89.30;;;;;;5084510;28;27395;-65
2021/06/10 03:42:51;;;;;;;8.57;5.50;;;16.80;89.00;;;;;;5085183;28;27328;-65
2021/06/10 03:45:38;;;;;;;5.63;4.63;;;16.80;89.10;;;;;;5084010;28;27540;-64
2021/06/10 03:48:25;;;;;;;6.00;4.63;;;16.80;88.90;;;;;;5085117;28;27491;-65
2021/06/10 03:51:13;;;;;;;5.50;4.93;;;16.80;89.00;;;;;;5067096;28;27341;-64
2021/06/10 03:54:01;;;;;;;9.43;5.05;;;16.80;88.90;;;;;;5084933;28;27385;-65
2021/06/10 03:56:48;;;;;;;6.18;4.78;;;16.70;88.80;;;;;;5084027;28;27458;-65
2021/06/10 03:59:35;;;;;;;4.85;4.43;;;16.70;88.60;;;;;;5084989;28;27423;-64
2021/06/10 04:02:22;;;;;;;7.80;4.38;;;16.70;88.70;;;;;;5084396;28;27403;-65
2021/06/10 04:05:10;;;;;;;6.78;4.28;;;16.70;88.80;;;;;;5084337;28;27937;-66
2021/06/10 04:07:59;;;;;;;5.18;3.97;;;16.70;88.90;;;;;;5084041;28;27540;-65
2021/06/10 04:10:46;;;;;;;5.32;4.43;;;16.70;88.80;;;;;;5070156;28;27486;-65
2021/06/10 04:13:34;;;;;;;5.07;4.30;;;16.70;89.00;;;;;;5069477;28;27329;-65
2021/06/10 04:16:25;;;;;;;6.13;4.63;;;16.70;89.60;;;;;;5084001;28;27336;-64
2021/06/10 04:19:13;;;;;;;4.53;4.13;;;16.70;89.40;;;;;;5083733;28;27602;-64
2021/06/10 04:22:00;;;;;;;6.07;4.00;;;16.70;89.80;;;;;;5083824;28;27360;-65
2021/06/10 04:24:48;;;;;;;5.35;3.85;;;16.70;89.80;;;;;;5084077;28;27478;-65
2021/06/10 04:27:35;;;;;;;5.70;3.90;;;16.70;90.00;;;;;;5084515;28;27462;-66
2021/06/10 04:30:22;;;;;;;4.57;4.18;;;16.70;90.10;;;;;;5066717;28;27454;-64
2021/06/10 04:33:19;;;;;;;4.28;3.42;;;16.70;90.20;;;;;;5044269;28;27413;-65
2021/06/10 04:36:06;;;;;;;4.13;3.75;;;16.70;90.30;;;;;;5043242;28;26939;-65
2021/06/10 04:38:54;;;;;;;6.10;3.72;;;16.80;90.40;;;;;;5028567;28;27419;-65
2021/06/10 04:41:41;;;;;;;4.15;3.47;;;16.80;90.50;;;;;;5026390;28;27492;-66
2021/06/10 04:44:29;;;;;;;4.60;3.80;;;16.80;90.40;;;;;;5043496;28;27384;-65
2021/06/10 04:47:18;;;;;;;4.15;3.58;;;16.90;90.90;;;;;;5043429;28;27407;-65
2021/06/10 04:50:05;;;;;;;5.72;3.70;;;16.90;90.60;;;;;;5043025;28;27888;-65
2021/06/10 04:52:53;;;;;;;3.70;3.38;;;16.90;90.70;;;;;;5025984;28;27425;-65
2021/06/10 04:56:06;;;;;;;;;;;;;;;;;;;;;
2021/06/10 04:59:14;;;;;;;3.38;3.00;;;16.90;90.70;;;;;;5050943;28;27502;-65
2021/06/10 05:02:04;;;;;;;4.10;3.45;;;17.00;90.60;;;;;;5026114;28;27323;-66
2021/06/10 05:04:52;;;;;;;4.15;3.40;;;17.00;90.50;;;;;;5042919;28;27428;-66
2021/06/10 05:07:39;;;;;;;3.67;3.15;;;17.10;90.10;;;;;;5042701;28;27342;-65
2021/06/10 05:10:27;;;;;;;3.60;3.30;;;17.10;90.40;;;;;;5043202;28;27396;-65
2021/06/10 05:13:19;;;;;;;6.40;3.72;;;17.10;90.40;;;;;;5043599;28;27409;-65
2021/06/10 05:16:06;;;;;;;4.20;3.80;;;17.20;89.30;;;;;;5043419;28;27316;-65
2021/06/10 05:18:54;;;;;;;4.55;4.15;;;17.20;89.00;;;;;;5043111;28;26960;-65
2021/06/10 05:21:42;;;;;;;5.75;4.47;;;17.20;88.80;;;;;;5043500;28;27408;-65
2021/06/10 05:24:29;;;;;;;5.95;3.83;;;17.30;89.00;;;;;;5043794;28;28001;-65
2021/06/10 05:27:16;;;;;;;5.03;4.38;;;17.30;89.00;;;;;;5043390;28;27385;-66
2021/06/10 05:30:08;;;;;;;4.45;4.05;;;17.30;89.20;;;;;;5043023;28;27429;-66
2021/06/10 05:32:56;;;;;;;3.70;3.40;;;17.40;90.00;;;;;;5076613;28;27406;-65
2021/06/10 05:35:44;;;;;;;4.75;3.70;;;17.40;89.10;;;;;;5082741;28;27852;-65
2021/06/10 05:38:32;;;;;;;4.65;3.30;;;17.40;89.90;;;;;;5068968;28;27494;-66
2021/06/10 05:41:21;;;;;;;4.25;3.85;;;17.40;90.00;;;;;;5068685;28;27396;-66
2021/06/10 05:44:10;;;;;;;3.75;3.45;;;17.40;89.70;;;;;;5066464;28;27410;-65
2021/06/10 05:46:57;;;;;;;4.40;4.00;;;17.50;90.00;;;;;;5082739;28;27957;-65
2021/06/10 05:49:46;;;;;;;5.43;3.75;;;17.50;90.30;;;;;;5083739;28;27418;-65
2021/06/10 05:52:33;;;;;;;5.15;4.65;;;17.60;90.30;;;;;;5100389;27;27573;-65
2021/06/10 05:55:22;;;;;;;4.07;3.78;;;17.70;90.50;;;;;;5086921;28;27464;-65
2021/06/10 05:58:11;;;;;;;4.10;3.72;;;17.80;90.50;;;;;;5100472;27;27408;-66
2021/06/10 06:01:01;;;;;;;4.60;4.18;;;17.90;90.30;;;;;;5085570;28;27440;-66
2021/06/10 06:03:50;;;;;;;3.92;3.63;;;18.10;90.50;;;;;;5083158;28;27431;-66
2021/06/10 06:06:39;;;;;;;4.05;3.60;;;18.20;90.60;;;;;;5069191;28;27646;-66
2021/06/10 06:09:27;;;;;;;5.18;4.55;;;18.40;90.60;;;;;;5086112;28;27436;-66
2021/06/10 06:12:16;;;;;;;5.47;4.18;;;18.50;90.40;;;;;;5082593;28;27329;-67
2021/06/10 06:15:06;;;;;;;3.75;3.45;;;18.70;90.50;;;;;;5085895;28;27415;-66
2021/06/10 06:17:53;;;;;;;4.18;3.85;;;18.70;90.70;;;;;;5100214;27;27332;-66
2021/06/10 06:20:41;;;;;;;6.70;4.03;;;18.80;90.80;;;;;;5086534;28;27989;-66
2021/06/10 06:23:32;;;;;;;5.07;4.60;;;18.80;91.00;;;;;;5082432;28;27502;-65
2021/06/10 06:26:21;;;;;;;4.22;3.83;;;18.90;90.90;;;;;;5085332;28;27597;-67
2021/06/10 06:29:40;;;;;;;4.75;4.30;;;19.00;91.20;;;;;;5068211;28;27478;-69
2021/06/10 06:32:46;;;;;;;5.38;4.88;;;19.10;91.70;;;;;;5072299;28;27959;-69
2021/06/10 06:35:41;;;;;;;4.80;4.22;;;19.40;91.90;;;;;;5086202;28;27478;-68
2021/06/10 06:38:40;;;;;;;5.55;5.05;;;19.60;91.50;;;;;;5085869;28;27375;-68
2021/06/10 06:41:28;;;;;;;4.80;4.40;;;19.70;91.60;;;;;;5086423;28;27320;-68
2021/06/10 06:44:16;;;;;;;7.25;4.50;;;19.90;91.50;;;;;;5086089;28;27541;-68
2021/06/10 06:47:04;;;;;;;4.97;4.53;;;20.10;92.10;;;;;;5085584;28;27332;-68
2021/06/10 06:49:51;;;;;;;5.05;4.65;;;20.20;92.00;;;;;;5086121;28;27343;-71
2021/06/10 06:52:39;;;;;;;5.95;4.85;;;20.40;92.00;;;;;;5085986;28;27411;-69
2021/06/10 06:55:26;;;;;;;4.78;4.38;;;20.50;92.20;;;;;;5083409;28;27470;-68
2021/06/10 06:58:16;;;;;;;5.55;4.95;;;20.70;92.60;;;;;;5085157;28;27416;-69
2021/06/10 07:01:04;;;;;;;6.20;4.90;;;20.80;92.70;;;;;;5085463;28;27420;-69
2021/06/10 07:03:52;;;;;;;5.10;4.70;;;21.00;93.00;;;;;;5084992;28;27403;-69
2021/06/10 07:06:50;;;;;;;6.32;4.90;;;21.20;93.20;;;;;;5085784;28;27395;-68
2021/06/10 07:09:41;;;;;;;5.60;5.13;;;21.30;91.40;;;;;;5085913;28;27411;-68
2021/06/10 07:12:37;;;;;;;5.97;5.47;;;21.40;83.60;;;;;;5084934;28;27410;-70
2021/06/10 07:15:25;;;;;;;14.07;5.88;;;21.50;82.20;;;;;;5054653;28;27383;-69
2021/06/10 07:18:13;;;;;;;8.23;5.85;;;21.60;83.30;;;;;;5084768;28;27423;-69
2021/06/10 07:20:59;;;;;;;6.57;5.97;;;21.70;87.10;;;;;;5085541;28;27567;-69
2021/06/10 07:23:46;;;;;;;7.05;6.35;;;21.80;89.60;;;;;;5084995;28;27467;-69
2021/06/10 07:26:34;;;;;;;9.05;7.05;;;21.90;90.70;;;;;;5056997;28;27376;-69
2021/06/10 07:29:22;;;;;;;6.28;5.78;;;22.10;91.60;;;;;;5084612;28;27342;-69
2021/06/10 07:32:13;;;;;;;6.35;5.85;;;22.20;92.00;;;;;;5084695;28;27505;-69
2021/06/10 07:35:03;;;;;;;6.70;6.10;;;22.30;92.80;;;;;;5084676;28;27364;-70
2021/06/10 07:37:52;;;;;;;6.63;6.13;;;22.40;92.70;;;;;;5084265;28;27416;-70
2021/06/10 07:40:41;;;;;;;6.47;5.88;;;22.60;93.10;;;;;;5084442;28;27926;-70
2021/06/10 07:43:28;;;;;;;6.60;5.95;;;22.80;92.90;;;;;;5085112;28;27446;-70
2021/06/10 07:50:30;;;;;;;7.38;6.40;;;23.00;93.00;;;;;;5084860;28;27332;-68
2021/06/10 07:53:23;;;;;;;6.95;6.32;;;23.20;93.00;;;;;;5085005;28;27845;-69
2021/06/10 07:56:21;;;;;;;8.93;6.55;;;23.40;93.20;;;;;;5084142;28;27365;-70
2021/06/10 07:59:11;;;;;;;7.20;6.18;;;23.50;93.30;;;;;;5071067;28;27440;-70
2021/06/10 08:02:01;;;;;;;6.57;6.05;;;23.60;93.20;;;;;;5070328;28;27468;-69
2021/06/10 08:04:54;;;;;;;7.85;6.03;;;23.80;93.30;;;;;;5084403;28;27335;-70
2021/06/10 08:07:46;;;;;;;7.90;6.80;;;24.00;93.60;;;;;;5084476;28;27517;-70
2021/06/10 08:10:37;;;;;;;6.93;6.22;;;24.10;93.10;;;;;;5084070;28;27478;-70
2021/06/10 08:13:28;;;;;;;7.03;6.40;;;24.30;93.20;;;;;;5084231;28;27381;-70
2021/06/10 08:16:20;;;;;;;6.93;6.22;;;24.50;93.30;;;;;;5083259;28;27501;-70
2021/06/10 08:19:08;;;;;;;6.93;6.20;;;24.60;92.80;;;;;;5083866;28;27377;-70
2021/06/10 08:21:59;;;;;;;7.65;6.90;;;24.80;92.70;;;;;;5084192;28;27473;-68
2021/06/10 08:24:49;;;;;;;7.68;6.97;;;25.00;92.70;;;;;;5084583;28;27335;-68
2021/06/10 08:27:46;;;;;;;6.85;6.15;;;25.10;92.30;;;;;;5080420;28;27441;-69
2021/06/10 08:30:34;;;;;;;7.63;6.90;;;25.30;92.30;;;;;;5066705;28;27412;-69
2021/06/10 08:33:32;;;;;;;7.25;6.43;;;25.40;91.80;;;;;;5082802;28;27344;-69
2021/06/10 08:36:33;;;;;;;8.25;6.47;;;25.60;91.80;;;;;;5054936;28;27313;-69
2021/06/10 08:39:22;;;;;;;7.55;6.85;;;25.80;92.20;;;;;;5083520;28;27845;-70
2021/06/10 08:42:15;;;;;;;8.82;8.02;;;25.90;76.90;;;;;;5069783;28;27440;-72
2021/06/10 08:45:23;;;;;;;9.15;7.18;;;25.90;72.30;;;;;;5052804;28;27506;-73
2021/06/10 08:48:11;;;;;;;7.38;6.68;;;26.10;78.70;;;;;;5084265;28;27402;-72
2021/06/10 08:51:01;;;;;;;7.30;6.70;;;26.20;82.10;;;;;;5055778;28;27449;-72
2021/06/10 08:53:57;;;;;;;7.18;6.47;;;26.30;85.20;;;;;;5084137;28;27426;-72
2021/06/10 08:56:45;;;;;;;6.85;5.70;;;26.50;87.60;;;;;;5084289;28;27411;-72
2021/06/10 08:59:34;;;;;;;6.70;6.10;;;26.70;89.60;;;;;;5080509;28;27401;-72
2021/06/10 09:02:22;;;;;;;9.18;6.50;;;26.80;88.90;;;;;;5084015;28;27337;-71
2021/06/10 09:05:18;;;;;;;7.18;5.85;;;27.00;89.70;;;;;;5066990;28;27428;-72
2021/06/10 09:08:09;;;;;;;7.38;5.90;;;27.20;89.40;;;;;;5052667;28;27424;-71
2021/06/10 09:11:27;;;;;;;6.78;6.18;;;27.40;88.80;;;;;;5066901;28;27376;-72
2021/06/10 09:14:31;;;;;;;5.40;4.95;;;27.50;88.80;;;;;;5066403;28;27439;-71
2021/06/10 09:17:42;;;;;;;6.35;5.75;;;27.70;87.30;;;;;;5082852;28;27454;-72
2021/06/10 09:20:42;;;;;;;7.15;6.35;;;27.80;88.40;;;;;;5070187;28;27393;-71
2021/06/10 09:23:33;;;;;;;6.80;6.13;;;27.80;88.30;;;;;;5066416;28;27416;-72
2021/06/10 09:26:37;;;;;;;6.57;5.97;;;27.70;88.50;;;;;;5071223;28;27435;-72
2021/06/10 09:29:40;;;;;;;6.35;5.75;;;27.80;89.50;;;;;;5075072;28;27391;-73
2021/06/10 09:32:33;;;;;;;7.13;6.53;;;28.00;90.30;;;;;;5086046;28;27347;-73
2021/06/10 09:35:28;;;;;;;7.32;6.68;;;27.90;88.50;;;;;;5114993;27;26864;-71
2021/06/10 09:38:22;;;;;;;7.63;5.90;;;27.70;87.90;;;;;;5072053;28;27605;-72
2021/06/10 09:41:12;;;;;;;6.70;6.10;;;27.40;87.10;;;;;;5087061;28;27396;-73
2021/06/10 09:44:02;;;;;;;8.60;6.93;;;27.10;87.60;;;;;;5087179;28;27393;-71
2021/06/10 09:47:06;;;;;;;7.97;6.10;;;26.80;88.30;;;;;;5086285;28;27430;-72
2021/06/10 09:49:54;;;;;;;7.88;7.18;;;26.50;87.60;;;;;;5087273;28;27400;-72
2021/06/10 09:52:46;;;;;;;8.52;7.63;;;26.30;87.70;;;;;;5083214;28;27470;-71
2021/06/10 09:55:43;;;;;;;8.43;7.72;;;26.00;88.30;;;;;;5086964;28;27443;-71
2021/06/10 09:58:44;;;;;;;9.68;7.20;;;25.80;88.40;;;;;;5073596;28;27337;-70
2021/06/10 10:01:39;;;;;;;8.40;7.70;;;25.60;89.50;;;;;;5086175;28;27424;-71
2021/06/10 10:04:39;;;;;;;7.70;7.10;;;25.50;90.30;;;;;;5085741;28;27503;-70
2021/06/10 10:07:33;;;;;;;7.95;7.22;;;25.40;90.50;;;;;;5086488;28;27331;-71
2021/06/10 10:10:20;;;;;;;7.88;7.07;;;25.30;90.80;;;;;;5086267;28;26970;-72
2021/06/10 10:13:09;;;;;;;7.93;7.25;;;25.20;91.00;;;;;;5085912;28;27443;-72
2021/06/10 10:16:05;;;;;;;7.80;7.10;;;25.10;90.90;;;;;;5086062;28;27316;-73
2021/06/10 10:18:53;;;;;;;11.02;7.80;;;25.10;91.40;;;;;;5072030;28;27452;-73
2021/06/10 10:21:42;;;;;;;9.70;8.73;;;25.30;92.30;;;;;;5086030;28;27482;-72
2021/06/10 10:24:33;;;;;;;8.32;7.40;;;25.60;93.80;;;;;;5086009;28;27333;-74
2021/06/10 10:27:23;;;;;;;9.00;7.90;;;26.00;93.70;;;;;;5085658;28;27454;-72
2021/06/10 10:30:16;;;;;;;11.15;8.52;;;26.40;93.10;;;;;;5071836;28;27379;-72
2021/06/10 10:33:30;;;;;;;8.48;7.63;;;26.80;93.20;;;;;;5084865;28;27415;-72
2021/06/10 10:36:24;;;;;;;10.63;8.73;;;27.10;91.70;;;;;;5085621;28;27531;-73
2021/06/10 10:39:16;;;;;;;9.15;8.23;;;27.50;92.30;;;;;;5085125;28;27484;-74
2021/06/10 10:42:06;;;;;;;9.20;8.38;;;27.70;92.00;;;;;;5086261;28;27496;-73
2021/06/10 10:45:34;;;;;;;8.65;7.95;;;28.00;93.50;;;;;;5085469;28;27393;-74
2021/06/10 10:48:58;;;;;;;8.90;8.10;;;28.30;91.30;;;;;;5085610;28;27873;-72
2021/06/10 10:52:16;;;;;;;8.75;8.00;;;28.50;90.40;;;;;;5073186;28;27490;-74
2021/06/10 10:55:36;;;;;;;8.68;7.95;;;28.60;89.50;;;;;;5070176;28;27570;-74
2021/06/10 10:58:24;;;;;;;8.95;8.20;;;28.80;90.10;;;;;;5038705;28;27410;-74
2021/06/10 11:01:23;;;;;;;9.60;8.60;;;29.00;90.20;;;;;;5070831;28;28067;-74
2021/06/10 11:04:54;;;;;;;10.57;9.57;;;29.10;90.50;;;;;;5056420;28;27522;-74
2021/06/10 11:08:12;;;;;;;8.38;7.63;;;29.30;86.10;;;;;;5068373;28;27377;-74
2021/06/10 11:11:48;;;;;;;9.48;8.10;;;29.10;84.90;;;;;;5084246;28;27424;-74
2021/06/10 11:14:50;;;;;;;10.98;7.68;;;28.90;85.40;;;;;;5083939;28;27865;-74
2021/06/10 11:17:46;;;;;;;8.85;7.90;;;28.60;86.40;;;;;;5066249;28;27618;-73
2021/06/10 11:20:39;;;;;;;9.50;8.63;;;28.50;88.20;;;;;;5066432;28;27400;-74
2021/06/10 11:23:28;;;;;;;9.80;8.90;;;28.40;90.40;;;;;;5052510;28;27411;-74
2021/06/10 11:26:20;;;;;;;9.20;8.30;;;28.50;89.30;;;;;;5070195;28;27483;-73
2021/06/10 11:29:09;;;;;;;8.70;7.93;;;28.40;85.50;;;;;;5082300;28;27559;-72
2021/06/10 11:32:27;;;;;;;8.27;7.53;;;28.20;86.40;;;;;;5083350;28;27608;-73
2021/06/10 11:35:17;;;;;;;8.82;8.00;;;28.00;82.00;;;;;;5071631;28;27317;-72
2021/06/10 11:38:13;;;;;;;9.98;8.90;;;27.70;84.70;;;;;;5070280;28;27487;-75
2021/06/10 11:41:08;;;;;;;10.20;8.70;;;27.50;84.90;;;;;;5084646;28;27349;-70
2021/06/10 11:44:00;;;;;;;11.20;10.00;;;27.20;87.00;;;;;;5070710;28;27525;-77
2021/06/10 11:46:52;;;;;;;9.40;8.45;;;27.00;87.60;;;;;;5085514;28;27475;-74
2021/06/10 11:49:42;;;;;;;8.77;7.97;;;26.80;88.50;;;;;;5070661;28;27411;-73
2021/06/10 11:52:49;;;;;;;10.95;7.80;;;26.60;90.50;;;;;;5084685;28;27412;-74
2021/06/10 11:55:41;;;;;;;7.38;6.68;;;26.50;90.40;;;;;;5098827;28;27403;-73
2021/06/10 11:58:30;;;;;;;8.15;7.18;;;26.30;89.20;;;;;;5085241;28;27388;-72
2021/06/10 12:01:20;;;;;;;7.80;7.00;;;26.20;90.50;;;;;;5084206;28;27375;-72
2021/06/10 12:04:22;;;;;;;7.70;7.00;;;26.10;88.60;;;;;;5084031;28;27470;-70
2021/06/10 12:07:56;;;;;;;8.30;7.50;;;25.90;88.80;;;;;;5070519;28;26904;-75
2021/06/10 12:11:07;;;;;;;9.55;8.68;;;25.80;90.40;;;;;;5069817;28;27459;-74
2021/06/10 12:14:48;;;;;;;9.75;8.75;;;25.60;90.40;;;;;;5060071;28;27345;-72
2021/06/10 12:18:13;;;;;;;8.90;8.02;;;25.60;88.40;;;;;;5080633;28;27467;-70
2021/06/10 12:21:27;;;;;;;8.73;7.80;;;25.40;87.20;;;;;;5068681;28;27341;-73
2021/06/10 12:24:51;;;;;;;7.03;6.32;;;25.30;85.70;;;;;;5076586;28;27488;-73
2021/06/10 12:27:46;;;;;;;9.57;6.28;;;25.20;85.80;;;;;;5070574;28;27326;-74
2021/06/10 12:30:39;;;;;;;9.85;6.10;;;25.00;86.90;;;;;;5069985;28;27399;-74
2021/06/10 12:33:50;;;;;;;7.78;5.45;;;24.90;85.90;;;;;;5083024;28;27361;-72
2021/06/10 12:36:49;;;;;;;8.55;5.82;;;24.80;85.00;;;;;;5084682;28;27334;-71
2021/06/10 12:39:45;;;;;;;9.70;5.68;;;24.70;84.70;;;;;;5067100;28;27845;-71
2021/06/10 12:42:33;;;;;;;6.40;5.78;;;24.60;85.20;;;;;;5084333;28;27521;-73
2021/06/10 12:45:35;;;;;;;8.68;6.20;;;24.60;85.70;;;;;;5083697;28;27403;-71
2021/06/10 12:48:30;;;;;;;7.00;6.05;;;24.50;86.30;;;;;;5070033;28;27407;-71
2021/06/10 12:51:32;;;;;;;7.47;5.60;;;24.50;90.50;;;;;;5066984;27;27861;-69
2021/06/10 12:54:39;;;;;;;7.05;5.95;;;24.50;88.60;;;;;;5067316;28;27460;-69
2021/06/10 12:57:28;;;;;;;6.47;5.93;;;24.50;90.60;;;;;;5069328;28;27429;-70
2021/06/10 13:00:23;;;;;;;9.45;6.78;;;24.50;89.60;;;;;;5069063;28;27333;-69
2021/06/10 13:03:12;;;;;;;7.13;6.15;;;24.50;90.70;;;;;;5052887;28;27383;-69
2021/06/10 13:06:13;;;;;;;6.28;5.68;;;24.50;91.60;;;;;;5069916;28;27529;-70
2021/06/10 13:09:27;;;;;;;6.43;5.43;;;24.50;91.40;;;;;;5068484;27;27408;-69
2021/06/10 13:12:33;;;;;;;6.63;5.97;;;24.50;91.20;;;;;;5079945;28;27407;-68
2021/06/10 13:15:35;;;;;;;9.45;6.50;;;24.60;91.50;;;;;;5083144;28;27391;-79
2021/06/10 13:18:38;;;;;;;7.18;6.50;;;24.70;92.70;;;;;;5056744;28;27384;-68
2021/06/10 13:21:36;;;;;;;6.63;6.03;;;24.80;93.60;;;;;;5083955;28;27466;-68
2021/06/10 13:24:26;;;;;;;11.88;7.25;;;24.90;93.00;;;;;;5084135;28;27361;-68
2021/06/10 13:27:18;;;;;;;9.77;8.77;;;25.00;85.30;;;;;;5053083;28;27448;-68
2021/06/10 13:30:17;;;;;;;10.68;7.80;;;25.10;84.80;;;;;;5083694;28;27380;-67
2021/06/10 13:33:08;;;;;;;8.98;8.07;;;25.30;85.70;;;;;;5068278;28;27436;-67
2021/06/10 13:36:10;;;;;;;8.45;7.63;;;25.40;91.50;;;;;;5070010;28;27440;-68
2021/06/10 13:39:16;;;;;;;11.25;7.28;;;25.60;94.10;;;;;;5094848;27;27385;-68
2021/06/10 13:42:11;;;;;;;8.43;7.63;;;25.80;95.30;;;;;;5082350;28;27469;-68
2021/06/10 13:45:00;;;;;;;7.82;7.03;;;25.90;95.90;;;;;;5083164;28;27347;-69
2021/06/10 13:47:48;;;;;;;8.00;7.30;;;26.10;96.00;;;;;;5083754;28;27330;-68
2021/06/10 13:50:36;;;;;;;8.05;7.25;;;26.20;96.40;;;;;;5082963;28;27436;-69
2021/06/10 13:53:29;;;;;;;8.48;7.78;;;26.30;96.80;;;;;;5068763;28;27403;-67
2021/06/10 13:56:17;;;;;;;7.88;7.18;;;26.40;97.00;;;;;;5068526;28;27474;-69
2021/06/10 13:59:14;;;;;;;12.10;7.38;;;26.60;97.00;;;;;;5054923;28;27344;-69
2021/06/10 14:02:06;;;;;;;8.68;7.88;;;26.70;97.10;;;;;;5083269;28;27968;-69
2021/06/10 14:04:57;;;;;;;12.80;9.38;;;26.80;97.30;;;;;;5096697;27;27333;-68
2021/06/10 14:07:44;;;;;;;10.35;9.45;;;27.00;97.90;;;;;;5082530;28;27498;-68
2021/06/10 14:10:33;;;;;;;12.23;10.93;;;27.10;97.70;;;;;;5082745;28;27396;-69
2021/06/10 14:13:24;;;;;;;13.55;12.25;;;27.30;98.00;;;;;;5085739;28;27406;-69
2021/06/10 14:16:18;;;;;;;14.07;12.75;;;27.50;98.50;;;;;;5072396;28;27486;-69
2021/06/10 14:19:19;;;;;;;13.90;12.32;;;27.70;97.50;;;;;;5100456;27;27475;-70
2021/06/10 14:22:20;;;;;;;12.73;11.73;;;27.80;97.10;;;;;;5099976;27;27400;-70
2021/06/10 14:25:16;;;;;;;13.82;12.40;;;27.90;95.10;;;;;;5082554;28;27387;-70
2021/06/10 14:28:14;;;;;;;13.60;12.40;;;27.90;94.00;;;;;;5073099;28;27384;-70
2021/06/10 14:34:16;;;;;;;13.10;11.90;;;28.00;91.40;;;;;;5085686;28;27411;-71
2021/06/10 14:37:09;;;;;;;13.00;11.70;;;27.90;90.80;;;;;;5085052;28;27551;-71
2021/06/10 14:40:11;;;;;;;12.90;11.80;;;27.90;90.40;;;;;;5085510;28;27348;-70
2021/06/10 14:43:10;;;;;;;13.18;11.85;;;27.90;91.90;;;;;;5085594;28;27496;-71
2021/06/10 14:46:06;;;;;;;14.85;13.43;;;28.10;91.70;;;;;;5085527;28;27372;-72
2021/06/10 14:49:00;;;;;;;13.07;11.77;;;28.10;70.20;;;;;;5082134;28;27544;-71
2021/06/10 14:52:02;;;;;;;13.20;12.00;;;28.10;67.80;;;;;;5071749;28;27462;-72
2021/06/10 14:55:01;;;;;;;13.27;11.52;;;28.10;77.30;;;;;;5082018;28;27422;-73
2021/06/10 14:58:00;;;;;;;13.38;11.45;;;28.20;80.90;;;;;;5085008;28;27517;-72
2021/06/10 15:01:11;;;;;;;12.25;11.05;;;28.20;82.30;;;;;;5069592;28;27399;-71
2021/06/10 15:04:02;;;;;;;11.35;10.20;;;28.30;83.90;;;;;;5085238;28;27511;-73
2021/06/10 15:06:54;;;;;;;10.48;9.48;;;28.30;83.90;;;;;;5068822;28;27398;-73
2021/06/10 15:09:49;;;;;;;11.10;10.10;;;28.40;79.80;;;;;;5085286;28;27506;-73